Terminal Aerodrome Forecast
Issued by NWS

Home | Current Version | Previous Version | Text Only | Print | Product List | Glossary On
Versions: 1 2 3 4 5 6 7 8 9 10 11 12 13 14 15 16 17 18 19
000
FTUS44 KEWX 292156 AAA
TAFSSF
TAF AMD
KSSF 292156Z 2922/3018 19010KT P6SM SCT040
     FM300100 34015G25KT P6SM SHRA BKN035
      TEMPO 3001/3004 TSRA SCT010 BKN035CB
     FM300600 35010KT P6SM FEW025 BKN070
     FM301500 32013G23KT P6SM FEW090=

USA.gov is the U.S. government's official web portal to all federal, state and local government web resources and services.